sensor_id;sensor_type;location;lat;lon;timestamp;P1;durP1;ratioP1;P2;durP2;ratioP2
79373;SDS011;68844;53.128;17.958;2023-04-03T00:01:05;2.60;;;0.40;;
79373;SDS011;68844;53.128;17.958;2023-04-03T00:03:32;0.20;;;0.10;;
79373;SDS011;68844;53.128;17.958;2023-04-03T00:06:00;1.10;;;0.40;;
79373;SDS011;68844;53.128;17.958;2023-04-03T00:08:27;2.30;;;0.70;;
79373;SDS011;68844;53.128;17.958;2023-04-03T00:10:56;1.70;;;0.40;;
79373;SDS011;68844;53.128;17.958;2023-04-03T00:13:23;3.40;;;0.60;;
79373;SDS011;68844;53.128;17.958;2023-04-03T00:15:51;2.40;;;0.50;;
79373;SDS011;68844;53.128;17.958;2023-04-03T00:18:19;2.00;;;0.30;;
79373;SDS011;68844;53.128;17.958;2023-04-03T00:20:45;1.40;;;0.50;;
79373;SDS011;68844;53.128;17.958;2023-04-03T00:23:12;2.50;;;0.40;;
79373;SDS011;68844;53.128;17.958;2023-04-03T00:25:39;1.70;;;0.50;;
79373;SDS011;68844;53.128;17.958;2023-04-03T00:28:06;1.30;;;0.40;;
79373;SDS011;68844;53.128;17.958;2023-04-03T00:30:33;1.60;;;0.60;;
79373;SDS011;68844;53.128;17.958;2023-04-03T00:32:59;2.60;;;0.40;;
79373;SDS011;68844;53.128;17.958;2023-04-03T00:35:27;3.00;;;0.30;;
79373;SDS011;68844;53.128;17.958;2023-04-03T00:37:54;1.90;;;0.40;;
79373;SDS011;68844;53.128;17.958;2023-04-03T00:40:23;1.90;;;0.50;;
79373;SDS011;68844;53.128;17.958;2023-04-03T00:42:57;2.40;;;0.50;;
79373;SDS011;68844;53.128;17.958;2023-04-03T00:45:30;1.50;;;0.90;;
79373;SDS011;68844;53.128;17.958;2023-04-03T00:48:03;5.20;;;0.70;;
79373;SDS011;68844;53.128;17.958;2023-04-03T00:50:34;1.40;;;0.40;;
79373;SDS011;68844;53.128;17.958;2023-04-03T00:53:03;1.80;;;0.30;;
79373;SDS011;68844;53.128;17.958;2023-04-03T00:55:33;0.70;;;0.30;;
79373;SDS011;68844;53.128;17.958;2023-04-03T00:58:02;1.20;;;0.40;;
79373;SDS011;68844;53.128;17.958;2023-04-03T01:00:29;1.40;;;0.40;;
79373;SDS011;68844;53.128;17.958;2023-04-03T01:02:56;2.20;;;0.40;;
79373;SDS011;68844;53.128;17.958;2023-04-03T01:05:23;4.50;;;0.70;;
79373;SDS011;68844;53.128;17.958;2023-04-03T01:07:50;1.00;;;0.30;;
79373;SDS011;68844;53.128;17.958;2023-04-03T01:10:18;1.90;;;0.50;;
79373;SDS011;68844;53.128;17.958;2023-04-03T01:12:48;2.90;;;0.70;;
79373;SDS011;68844;53.128;17.958;2023-04-03T01:15:21;1.00;;;0.90;;
79373;SDS011;68844;53.128;17.958;2023-04-03T01:17:51;1.20;;;0.30;;
79373;SDS011;68844;53.128;17.958;2023-04-03T01:25:39;2.10;;;0.40;;
79373;SDS011;68844;53.128;17.958;2023-04-03T01:28:09;2.00;;;0.60;;
79373;SDS011;68844;53.128;17.958;2023-04-03T01:30:46;0.60;;;0.20;;
79373;SDS011;68844;53.128;17.958;2023-04-03T01:33:17;2.30;;;0.40;;
79373;SDS011;68844;53.128;17.958;2023-04-03T01:35:46;3.90;;;0.80;;
79373;SDS011;68844;53.128;17.958;2023-04-03T01:38:13;1.30;;;0.30;;
79373;SDS011;68844;53.128;17.958;2023-04-03T01:40:39;1.40;;;0.40;;
79373;SDS011;68844;53.128;17.958;2023-04-03T01:43:06;1.10;;;0.40;;
79373;SDS011;68844;53.128;17.958;2023-04-03T01:45:33;0.90;;;0.30;;
79373;SDS011;68844;53.128;17.958;2023-04-03T01:47:59;2.10;;;0.40;;
79373;SDS011;68844;53.128;17.958;2023-04-03T01:50:27;2.00;;;0.40;;
79373;SDS011;68844;53.128;17.958;2023-04-03T01:52:54;2.20;;;0.60;;
79373;SDS011;68844;53.128;17.958;2023-04-03T01:55:21;2.30;;;0.50;;
79373;SDS011;68844;53.128;17.958;2023-04-03T01:57:48;1.00;;;0.40;;
79373;SDS011;68844;53.128;17.958;2023-04-03T02:00:15;2.20;;;0.50;;
79373;SDS011;68844;53.128;17.958;2023-04-03T02:02:42;0.90;;;0.00;;
79373;SDS011;68844;53.128;17.958;2023-04-03T02:05:09;2.80;;;0.50;;
79373;SDS011;68844;53.128;17.958;2023-04-03T02:07:36;2.60;;;0.40;;
79373;SDS011;68844;53.128;17.958;2023-04-03T02:10:03;2.40;;;0.40;;
79373;SDS011;68844;53.128;17.958;2023-04-03T02:12:30;2.00;;;0.60;;
79373;SDS011;68844;53.128;17.958;2023-04-03T02:14:58;3.40;;;0.40;;
79373;SDS011;68844;53.128;17.958;2023-04-03T02:17:27;2.10;;;0.40;;
79373;SDS011;68844;53.128;17.958;2023-04-03T02:19:55;2.50;;;0.40;;
79373;SDS011;68844;53.128;17.958;2023-04-03T02:22:22;2.50;;;0.30;;
79373;SDS011;68844;53.128;17.958;2023-04-03T02:24:49;2.50;;;0.50;;
79373;SDS011;68844;53.128;17.958;2023-04-03T02:27:16;1.30;;;0.80;;
79373;SDS011;68844;53.128;17.958;2023-04-03T02:29:43;1.70;;;0.40;;
79373;SDS011;68844;53.128;17.958;2023-04-03T02:32:10;1.60;;;0.60;;
79373;SDS011;68844;53.128;17.958;2023-04-03T02:34:38;1.70;;;0.50;;
79373;SDS011;68844;53.128;17.958;2023-04-03T02:37:05;0.70;;;0.30;;
79373;SDS011;68844;53.128;17.958;2023-04-03T02:39:33;1.30;;;0.40;;
79373;SDS011;68844;53.128;17.958;2023-04-03T02:42:00;1.40;;;0.40;;
79373;SDS011;68844;53.128;17.958;2023-04-03T02:44:27;2.00;;;0.50;;
79373;SDS011;68844;53.128;17.958;2023-04-03T02:46:54;2.40;;;0.30;;
79373;SDS011;68844;53.128;17.958;2023-04-03T02:49:21;2.00;;;0.50;;
79373;SDS011;68844;53.128;17.958;2023-04-03T02:51:48;1.60;;;0.70;;
79373;SDS011;68844;53.128;17.958;2023-04-03T02:54:15;1.20;;;0.30;;
79373;SDS011;68844;53.128;17.958;2023-04-03T02:56:45;3.50;;;0.50;;
79373;SDS011;68844;53.128;17.958;2023-04-03T02:59:12;1.70;;;0.60;;
79373;SDS011;68844;53.128;17.958;2023-04-03T03:01:39;2.10;;;0.40;;
79373;SDS011;68844;53.128;17.958;2023-04-03T03:04:06;3.30;;;0.50;;
79373;SDS011;68844;53.128;17.958;2023-04-03T03:06:33;3.40;;;0.60;;
79373;SDS011;68844;53.128;17.958;2023-04-03T03:09:00;1.00;;;0.30;;
79373;SDS011;68844;53.128;17.958;2023-04-03T03:11:27;0.90;;;0.40;;
79373;SDS011;68844;53.128;17.958;2023-04-03T03:13:54;3.50;;;0.70;;
79373;SDS011;68844;53.128;17.958;2023-04-03T03:16:22;4.40;;;0.70;;
79373;SDS011;68844;53.128;17.958;2023-04-03T03:18:50;1.90;;;0.50;;
79373;SDS011;68844;53.128;17.958;2023-04-03T03:21:17;2.90;;;0.60;;
79373;SDS011;68844;53.128;17.958;2023-04-03T03:23:44;2.10;;;0.50;;
79373;SDS011;68844;53.128;17.958;2023-04-03T03:26:11;3.60;;;0.70;;
79373;SDS011;68844;53.128;17.958;2023-04-03T03:28:39;1.10;;;0.30;;
79373;SDS011;68844;53.128;17.958;2023-04-03T03:31:10;1.90;;;0.40;;
79373;SDS011;68844;53.128;17.958;2023-04-03T03:33:39;3.40;;;0.60;;
79373;SDS011;68844;53.128;17.958;2023-04-03T03:36:06;3.40;;;0.50;;
79373;SDS011;68844;53.128;17.958;2023-04-03T03:38:34;1.40;;;0.30;;
79373;SDS011;68844;53.128;17.958;2023-04-03T03:41:01;3.40;;;0.80;;
79373;SDS011;68844;53.128;17.958;2023-04-03T03:43:29;3.80;;;1.60;;
79373;SDS011;68844;53.128;17.958;2023-04-03T03:45:57;5.60;;;1.80;;
79373;SDS011;68844;53.128;17.958;2023-04-03T03:48:24;5.10;;;1.80;;
79373;SDS011;68844;53.128;17.958;2023-04-03T03:50:51;3.40;;;1.40;;
79373;SDS011;68844;53.128;17.958;2023-04-03T03:53:19;3.60;;;1.00;;
79373;SDS011;68844;53.128;17.958;2023-04-03T03:55:47;4.90;;;1.40;;
79373;SDS011;68844;53.128;17.958;2023-04-03T03:58:14;2.60;;;1.40;;
79373;SDS011;68844;53.128;17.958;2023-04-03T04:00:42;5.50;;;1.80;;
79373;SDS011;68844;53.128;17.958;2023-04-03T04:03:09;1.60;;;0.80;;
79373;SDS011;68844;53.128;17.958;2023-04-03T04:05:36;4.30;;;0.80;;
79373;SDS011;68844;53.128;17.958;2023-04-03T04:08:03;3.40;;;0.70;;
79373;SDS011;68844;53.128;17.958;2023-04-03T04:10:30;2.70;;;1.00;;
79373;SDS011;68844;53.128;17.958;2023-04-03T04:12:58;1.90;;;0.60;;
79373;SDS011;68844;53.128;17.958;2023-04-03T04:15:26;2.10;;;0.90;;
79373;SDS011;68844;53.128;17.958;2023-04-03T04:17:54;1.90;;;0.50;;
79373;SDS011;68844;53.128;17.958;2023-04-03T04:20:22;2.40;;;0.80;;
79373;SDS011;68844;53.128;17.958;2023-04-03T04:22:49;1.80;;;0.60;;
79373;SDS011;68844;53.128;17.958;2023-04-03T04:25:17;1.60;;;0.60;;
79373;SDS011;68844;53.128;17.958;2023-04-03T04:27:44;2.70;;;0.50;;
79373;SDS011;68844;53.128;17.958;2023-04-03T04:30:13;3.50;;;0.80;;
79373;SDS011;68844;53.128;17.958;2023-04-03T04:32:40;2.30;;;0.80;;
79373;SDS011;68844;53.128;17.958;2023-04-03T04:35:07;1.50;;;0.70;;
79373;SDS011;68844;53.128;17.958;2023-04-03T04:37:35;2.30;;;0.60;;
79373;SDS011;68844;53.128;17.958;2023-04-03T04:40:03;2.30;;;0.70;;
79373;SDS011;68844;53.128;17.958;2023-04-03T04:42:30;2.00;;;0.70;;
79373;SDS011;68844;53.128;17.958;2023-04-03T04:44:58;3.80;;;1.60;;
79373;SDS011;68844;53.128;17.958;2023-04-03T04:47:25;2.10;;;0.60;;
79373;SDS011;68844;53.128;17.958;2023-04-03T04:49:52;3.70;;;1.20;;
79373;SDS011;68844;53.128;17.958;2023-04-03T04:52:20;3.70;;;1.10;;
79373;SDS011;68844;53.128;17.958;2023-04-03T04:54:46;2.70;;;0.90;;
79373;SDS011;68844;53.128;17.958;2023-04-03T04:57:14;4.20;;;1.30;;
79373;SDS011;68844;53.128;17.958;2023-04-03T04:59:41;3.80;;;1.40;;
79373;SDS011;68844;53.128;17.958;2023-04-03T05:02:08;4.30;;;1.90;;
79373;SDS011;68844;53.128;17.958;2023-04-03T05:04:35;1.80;;;0.80;;
79373;SDS011;68844;53.128;17.958;2023-04-03T05:07:07;2.30;;;0.80;;
79373;SDS011;68844;53.128;17.958;2023-04-03T05:09:35;4.10;;;1.20;;
79373;SDS011;68844;53.128;17.958;2023-04-03T05:12:03;3.20;;;1.30;;
79373;SDS011;68844;53.128;17.958;2023-04-03T05:14:34;4.60;;;1.20;;
79373;SDS011;68844;53.128;17.958;2023-04-03T05:17:04;3.90;;;1.50;;
79373;SDS011;68844;53.128;17.958;2023-04-03T05:19:33;4.50;;;1.40;;
79373;SDS011;68844;53.128;17.958;2023-04-03T05:22:01;3.60;;;1.30;;
79373;SDS011;68844;53.128;17.958;2023-04-03T05:24:29;3.80;;;2.30;;
79373;SDS011;68844;53.128;17.958;2023-04-03T05:26:56;4.30;;;1.90;;
79373;SDS011;68844;53.128;17.958;2023-04-03T05:29:24;4.60;;;2.00;;
79373;SDS011;68844;53.128;17.958;2023-04-03T05:31:51;3.00;;;1.70;;
79373;SDS011;68844;53.128;17.958;2023-04-03T05:34:18;3.30;;;1.80;;
79373;SDS011;68844;53.128;17.958;2023-04-03T05:36:47;3.50;;;1.80;;
79373;SDS011;68844;53.128;17.958;2023-04-03T05:39:14;3.30;;;1.50;;
79373;SDS011;68844;53.128;17.958;2023-04-03T05:41:43;5.60;;;3.60;;
79373;SDS011;68844;53.128;17.958;2023-04-03T05:44:10;4.20;;;1.80;;
79373;SDS011;68844;53.128;17.958;2023-04-03T05:46:37;2.70;;;1.80;;
79373;SDS011;68844;53.128;17.958;2023-04-03T05:49:06;2.30;;;1.60;;
79373;SDS011;68844;53.128;17.958;2023-04-03T05:51:35;2.50;;;1.50;;
79373;SDS011;68844;53.128;17.958;2023-04-03T05:54:21;2.30;;;0.80;;
79373;SDS011;68844;53.128;17.958;2023-04-03T05:56:52;3.10;;;1.50;;
79373;SDS011;68844;53.128;17.958;2023-04-03T05:59:23;2.00;;;1.50;;
79373;SDS011;68844;53.128;17.958;2023-04-03T06:01:51;1.80;;;1.00;;
79373;SDS011;68844;53.128;17.958;2023-04-03T06:06:49;1.60;;;0.70;;
79373;SDS011;68844;53.128;17.958;2023-04-03T06:09:18;2.70;;;1.00;;
79373;SDS011;68844;53.128;17.958;2023-04-03T06:11:50;1.10;;;0.50;;
79373;SDS011;68844;53.128;17.958;2023-04-03T06:14:18;1.90;;;0.80;;
79373;SDS011;68844;53.128;17.958;2023-04-03T06:16:46;2.90;;;0.90;;
79373;SDS011;68844;53.128;17.958;2023-04-03T06:19:13;1.30;;;0.60;;
79373;SDS011;68844;53.128;17.958;2023-04-03T06:21:43;2.70;;;0.90;;
79373;SDS011;68844;53.128;17.958;2023-04-03T06:24:12;2.40;;;1.20;;
79373;SDS011;68844;53.128;17.958;2023-04-03T06:26:41;2.60;;;1.00;;
79373;SDS011;68844;53.128;17.958;2023-04-03T06:29:09;1.70;;;1.00;;
79373;SDS011;68844;53.128;17.958;2023-04-03T06:31:36;1.60;;;0.60;;
79373;SDS011;68844;53.128;17.958;2023-04-03T06:34:03;5.00;;;1.20;;
79373;SDS011;68844;53.128;17.958;2023-04-03T06:36:30;1.80;;;1.10;;
79373;SDS011;68844;53.128;17.958;2023-04-03T06:38:57;1.90;;;0.60;;
79373;SDS011;68844;53.128;17.958;2023-04-03T06:41:25;1.90;;;0.70;;
79373;SDS011;68844;53.128;17.958;2023-04-03T06:43:53;1.80;;;0.70;;
79373;SDS011;68844;53.128;17.958;2023-04-03T06:46:23;2.60;;;0.70;;
79373;SDS011;68844;53.128;17.958;2023-04-03T06:48:52;0.90;;;0.60;;
79373;SDS011;68844;53.128;17.958;2023-04-03T06:51:24;1.40;;;0.70;;
79373;SDS011;68844;53.128;17.958;2023-04-03T06:53:53;1.20;;;0.60;;
79373;SDS011;68844;53.128;17.958;2023-04-03T06:56:22;1.10;;;0.30;;
79373;SDS011;68844;53.128;17.958;2023-04-03T06:58:49;1.90;;;0.60;;
79373;SDS011;68844;53.128;17.958;2023-04-03T07:01:18;1.70;;;0.40;;
79373;SDS011;68844;53.128;17.958;2023-04-03T07:03:46;1.40;;;0.50;;
79373;SDS011;68844;53.128;17.958;2023-04-03T07:06:15;1.70;;;0.50;;
79373;SDS011;68844;53.128;17.958;2023-04-03T07:08:43;1.20;;;0.60;;
79373;SDS011;68844;53.128;17.958;2023-04-03T07:11:11;1.60;;;0.50;;
79373;SDS011;68844;53.128;17.958;2023-04-03T07:13:39;1.40;;;0.60;;
79373;SDS011;68844;53.128;17.958;2023-04-03T07:16:07;0.70;;;0.40;;
79373;SDS011;68844;53.128;17.958;2023-04-03T07:18:35;1.50;;;0.50;;
79373;SDS011;68844;53.128;17.958;2023-04-03T07:21:02;1.30;;;0.50;;
79373;SDS011;68844;53.128;17.958;2023-04-03T07:23:30;1.70;;;0.70;;
79373;SDS011;68844;53.128;17.958;2023-04-03T07:25:57;0.90;;;0.40;;
79373;SDS011;68844;53.128;17.958;2023-04-03T07:28:24;1.20;;;0.20;;
79373;SDS011;68844;53.128;17.958;2023-04-03T07:31:02;1.50;;;0.50;;
79373;SDS011;68844;53.128;17.958;2023-04-03T07:33:32;0.50;;;0.20;;
79373;SDS011;68844;53.128;17.958;2023-04-03T07:36:00;1.40;;;0.40;;
79373;SDS011;68844;53.128;17.958;2023-04-03T07:38:28;1.50;;;0.60;;
79373;SDS011;68844;53.128;17.958;2023-04-03T07:40:55;1.00;;;0.60;;
79373;SDS011;68844;53.128;17.958;2023-04-03T07:43:22;1.40;;;0.80;;
79373;SDS011;68844;53.128;17.958;2023-04-03T07:45:51;1.30;;;0.50;;
79373;SDS011;68844;53.128;17.958;2023-04-03T07:48:19;1.00;;;0.60;;
79373;SDS011;68844;53.128;17.958;2023-04-03T07:50:47;1.00;;;0.40;;
79373;SDS011;68844;53.128;17.958;2023-04-03T07:53:14;0.60;;;0.40;;
79373;SDS011;68844;53.128;17.958;2023-04-03T07:55:42;0.90;;;0.20;;
79373;SDS011;68844;53.128;17.958;2023-04-03T07:58:12;0.70;;;0.20;;
79373;SDS011;68844;53.128;17.958;2023-04-03T08:00:42;0.90;;;0.30;;
79373;SDS011;68844;53.128;17.958;2023-04-03T08:03:09;2.00;;;0.60;;
79373;SDS011;68844;53.128;17.958;2023-04-03T08:05:38;1.70;;;0.50;;
79373;SDS011;68844;53.128;17.958;2023-04-03T08:08:08;1.40;;;0.40;;
79373;SDS011;68844;53.128;17.958;2023-04-03T08:10:37;1.30;;;0.50;;
79373;SDS011;68844;53.128;17.958;2023-04-03T08:13:04;0.80;;;0.50;;
79373;SDS011;68844;53.128;17.958;2023-04-03T08:15:31;1.30;;;0.60;;
79373;SDS011;68844;53.128;17.958;2023-04-03T08:17:59;1.80;;;0.80;;
79373;SDS011;68844;53.128;17.958;2023-04-03T08:20:27;1.40;;;0.80;;
79373;SDS011;68844;53.128;17.958;2023-04-03T08:22:54;1.50;;;0.60;;
79373;SDS011;68844;53.128;17.958;2023-04-03T08:25:21;1.40;;;1.00;;
79373;SDS011;68844;53.128;17.958;2023-04-03T08:27:48;1.20;;;0.60;;
79373;SDS011;68844;53.128;17.958;2023-04-03T08:30:15;1.60;;;0.90;;
79373;SDS011;68844;53.128;17.958;2023-04-03T08:32:42;1.50;;;1.20;;
79373;SDS011;68844;53.128;17.958;2023-04-03T08:35:10;1.00;;;0.40;;
79373;SDS011;68844;53.128;17.958;2023-04-03T08:37:38;1.30;;;0.50;;
79373;SDS011;68844;53.128;17.958;2023-04-03T08:40:07;1.90;;;0.80;;
79373;SDS011;68844;53.128;17.958;2023-04-03T08:45:46;2.00;;;0.70;;
79373;SDS011;68844;53.128;17.958;2023-04-03T08:48:21;0.90;;;0.50;;
79373;SDS011;68844;53.128;17.958;2023-04-03T08:51:00;1.60;;;0.50;;
79373;SDS011;68844;53.128;17.958;2023-04-03T08:53:33;1.20;;;0.70;;
79373;SDS011;68844;53.128;17.958;2023-04-03T08:56:07;1.70;;;0.70;;
79373;SDS011;68844;53.128;17.958;2023-04-03T08:58:47;1.40;;;0.60;;
79373;SDS011;68844;53.128;17.958;2023-04-03T09:01:30;0.70;;;0.40;;
79373;SDS011;68844;53.128;17.958;2023-04-03T09:04:02;0.70;;;0.40;;
79373;SDS011;68844;53.128;17.958;2023-04-03T09:06:36;1.10;;;0.40;;
79373;SDS011;68844;53.128;17.958;2023-04-03T09:12:00;1.30;;;0.30;;
79373;SDS011;68844;53.128;17.958;2023-04-03T09:23:16;2.00;;;0.40;;
79373;SDS011;68844;53.128;17.958;2023-04-03T09:25:48;2.20;;;0.70;;
79373;SDS011;68844;53.128;17.958;2023-04-03T09:28:20;1.10;;;0.70;;
79373;SDS011;68844;53.128;17.958;2023-04-03T09:30:46;1.30;;;0.40;;
79373;SDS011;68844;53.128;17.958;2023-04-03T09:33:13;1.00;;;0.40;;
79373;SDS011;68844;53.128;17.958;2023-04-03T09:35:41;1.50;;;0.60;;
79373;SDS011;68844;53.128;17.958;2023-04-03T09:40:45;1.10;;;0.50;;
79373;SDS011;68844;53.128;17.958;2023-04-03T09:43:32;1.50;;;0.40;;
79373;SDS011;68844;53.128;17.958;2023-04-03T09:48:58;1.00;;;0.60;;
79373;SDS011;68844;53.128;17.958;2023-04-03T09:51:27;1.30;;;0.70;;
79373;SDS011;68844;53.128;17.958;2023-04-03T09:53:55;1.10;;;0.40;;
79373;SDS011;68844;53.128;17.958;2023-04-03T10:01:32;2.00;;;0.90;;
79373;SDS011;68844;53.128;17.958;2023-04-03T10:04:16;0.70;;;0.30;;
79373;SDS011;68844;53.128;17.958;2023-04-03T10:06:46;0.80;;;0.20;;
79373;SDS011;68844;53.128;17.958;2023-04-03T10:12:00;1.70;;;0.50;;
79373;SDS011;68844;53.128;17.958;2023-04-03T10:17:29;1.10;;;0.70;;
79373;SDS011;68844;53.128;17.958;2023-04-03T10:26:34;1.00;;;0.30;;
79373;SDS011;68844;53.128;17.958;2023-04-03T10:29:10;0.90;;;0.40;;
79373;SDS011;68844;53.128;17.958;2023-04-03T10:34:45;0.90;;;0.30;;
79373;SDS011;68844;53.128;17.958;2023-04-03T10:37:21;0.90;;;0.10;;
79373;SDS011;68844;53.128;17.958;2023-04-03T10:45:03;1.20;;;0.40;;
79373;SDS011;68844;53.128;17.958;2023-04-03T10:53:04;1.40;;;0.30;;
79373;SDS011;68844;53.128;17.958;2023-04-03T10:56:25;0.70;;;0.30;;
79373;SDS011;68844;53.128;17.958;2023-04-03T10:58:45;0.90;;;0.40;;
79373;SDS011;68844;53.128;17.958;2023-04-03T11:01:45;0.60;;;0.20;;
79373;SDS011;68844;53.128;17.958;2023-04-03T11:04:18;0.50;;;0.20;;
79373;SDS011;68844;53.128;17.958;2023-04-03T11:06:53;1.10;;;0.30;;
79373;SDS011;68844;53.128;17.958;2023-04-03T11:09:36;1.00;;;0.40;;
79373;SDS011;68844;53.128;17.958;2023-04-03T11:15:15;1.10;;;0.20;;
79373;SDS011;68844;53.128;17.958;2023-04-03T11:17:54;1.00;;;0.40;;
79373;SDS011;68844;53.128;17.958;2023-04-03T11:20:28;0.70;;;0.20;;
79373;SDS011;68844;53.128;17.958;2023-04-03T11:25:34;1.40;;;0.70;;
79373;SDS011;68844;53.128;17.958;2023-04-03T11:36:06;0.50;;;0.10;;
79373;SDS011;68844;53.128;17.958;2023-04-03T11:38:38;1.20;;;0.40;;
79373;SDS011;68844;53.128;17.958;2023-04-03T11:41:10;0.70;;;0.30;;
79373;SDS011;68844;53.128;17.958;2023-04-03T11:44:25;1.30;;;0.50;;
79373;SDS011;68844;53.128;17.958;2023-04-03T12:13:41;1.40;;;0.80;;
79373;SDS011;68844;53.128;17.958;2023-04-03T12:16:33;1.30;;;0.50;;
79373;SDS011;68844;53.128;17.958;2023-04-03T12:29:33;0.50;;;0.20;;
79373;SDS011;68844;53.128;17.958;2023-04-03T12:32:09;1.70;;;0.10;;
79373;SDS011;68844;53.128;17.958;2023-04-03T12:35:01;0.70;;;0.10;;
79373;SDS011;68844;53.128;17.958;2023-04-03T12:43:41;0.70;;;0.20;;
79373;SDS011;68844;53.128;17.958;2023-04-03T12:46:18;1.00;;;0.30;;
79373;SDS011;68844;53.128;17.958;2023-04-03T12:48:48;1.10;;;0.30;;
79373;SDS011;68844;53.128;17.958;2023-04-03T12:54:13;0.60;;;0.20;;
79373;SDS011;68844;53.128;17.958;2023-04-03T12:56:43;0.30;;;0.20;;
79373;SDS011;68844;53.128;17.958;2023-04-03T13:01:57;0.80;;;0.30;;
79373;SDS011;68844;53.128;17.958;2023-04-03T13:04:29;0.60;;;0.10;;
79373;SDS011;68844;53.128;17.958;2023-04-03T13:06:58;0.70;;;0.30;;
79373;SDS011;68844;53.128;17.958;2023-04-03T13:09:27;0.80;;;0.30;;
79373;SDS011;68844;53.128;17.958;2023-04-03T13:12:02;0.90;;;0.50;;
79373;SDS011;68844;53.128;17.958;2023-04-03T13:14:37;1.10;;;0.30;;
79373;SDS011;68844;53.128;17.958;2023-04-03T13:17:15;0.50;;;0.20;;
79373;SDS011;68844;53.128;17.958;2023-04-03T13:19:44;1.30;;;0.30;;
79373;SDS011;68844;53.128;17.958;2023-04-03T13:22:31;0.80;;;0.20;;
79373;SDS011;68844;53.128;17.958;2023-04-03T13:25:06;0.50;;;0.20;;
79373;SDS011;68844;53.128;17.958;2023-04-03T13:27:35;0.50;;;0.20;;
79373;SDS011;68844;53.128;17.958;2023-04-03T13:30:03;0.80;;;0.30;;
79373;SDS011;68844;53.128;17.958;2023-04-03T13:32:31;0.70;;;0.20;;
79373;SDS011;68844;53.128;17.958;2023-04-03T13:34:59;0.50;;;0.20;;
79373;SDS011;68844;53.128;17.958;2023-04-03T13:37:28;0.70;;;0.20;;
79373;SDS011;68844;53.128;17.958;2023-04-03T13:40:18;1.10;;;0.30;;
79373;SDS011;68844;53.128;17.958;2023-04-03T13:42:45;1.00;;;0.30;;
79373;SDS011;68844;53.128;17.958;2023-04-03T13:51:02;1.40;;;0.60;;
79373;SDS011;68844;53.128;17.958;2023-04-03T13:53:33;0.70;;;0.30;;
79373;SDS011;68844;53.128;17.958;2023-04-03T13:56:17;1.50;;;0.30;;
79373;SDS011;68844;53.128;17.958;2023-04-03T13:58:55;1.60;;;0.40;;
79373;SDS011;68844;53.128;17.958;2023-04-03T14:01:40;0.70;;;0.20;;
79373;SDS011;68844;53.128;17.958;2023-04-03T14:04:21;0.70;;;0.20;;
79373;SDS011;68844;53.128;17.958;2023-04-03T14:06:51;0.80;;;0.30;;
79373;SDS011;68844;53.128;17.958;2023-04-03T14:09:19;1.70;;;0.70;;
79373;SDS011;68844;53.128;17.958;2023-04-03T14:11:48;1.60;;;0.60;;
79373;SDS011;68844;53.128;17.958;2023-04-03T14:14:30;1.90;;;0.70;;
79373;SDS011;68844;53.128;17.958;2023-04-03T14:16:59;1.80;;;0.60;;
79373;SDS011;68844;53.128;17.958;2023-04-03T14:19:29;1.50;;;0.70;;
79373;SDS011;68844;53.128;17.958;2023-04-03T14:22:05;1.00;;;0.40;;
79373;SDS011;68844;53.128;17.958;2023-04-03T14:24:38;0.70;;;0.30;;
79373;SDS011;68844;53.128;17.958;2023-04-03T14:27:11;0.60;;;0.30;;
79373;SDS011;68844;53.128;17.958;2023-04-03T14:29:43;0.30;;;0.10;;
79373;SDS011;68844;53.128;17.958;2023-04-03T14:32:12;1.30;;;0.60;;
79373;SDS011;68844;53.128;17.958;2023-04-03T14:34:41;0.90;;;0.30;;
79373;SDS011;68844;53.128;17.958;2023-04-03T14:37:10;1.10;;;0.40;;
79373;SDS011;68844;53.128;17.958;2023-04-03T14:39:43;1.40;;;0.40;;
79373;SDS011;68844;53.128;17.958;2023-04-03T14:42:16;0.60;;;0.30;;
79373;SDS011;68844;53.128;17.958;2023-04-03T14:44:46;2.60;;;0.70;;
79373;SDS011;68844;53.128;17.958;2023-04-03T14:47:15;1.30;;;0.40;;
79373;SDS011;68844;53.128;17.958;2023-04-03T14:49:45;0.70;;;0.20;;
79373;SDS011;68844;53.128;17.958;2023-04-03T14:52:22;1.50;;;0.30;;
79373;SDS011;68844;53.128;17.958;2023-04-03T14:54:56;1.20;;;0.30;;
79373;SDS011;68844;53.128;17.958;2023-04-03T14:57:25;0.90;;;0.40;;
79373;SDS011;68844;53.128;17.958;2023-04-03T14:59:54;1.60;;;0.60;;
79373;SDS011;68844;53.128;17.958;2023-04-03T15:02:28;1.60;;;1.00;;
79373;SDS011;68844;53.128;17.958;2023-04-03T15:05:01;0.50;;;0.20;;
79373;SDS011;68844;53.128;17.958;2023-04-03T15:07:33;1.10;;;0.40;;
79373;SDS011;68844;53.128;17.958;2023-04-03T15:10:05;1.70;;;0.70;;
79373;SDS011;68844;53.128;17.958;2023-04-03T15:12:54;1.80;;;0.50;;
79373;SDS011;68844;53.128;17.958;2023-04-03T15:15:22;3.60;;;1.20;;
79373;SDS011;68844;53.128;17.958;2023-04-03T15:17:52;0.90;;;0.30;;
79373;SDS011;68844;53.128;17.958;2023-04-03T15:20:22;1.70;;;0.20;;
79373;SDS011;68844;53.128;17.958;2023-04-03T15:22:53;1.20;;;0.30;;
79373;SDS011;68844;53.128;17.958;2023-04-03T15:25:23;1.30;;;0.60;;
79373;SDS011;68844;53.128;17.958;2023-04-03T15:27:53;1.20;;;0.60;;
79373;SDS011;68844;53.128;17.958;2023-04-03T15:30:21;0.90;;;0.20;;
79373;SDS011;68844;53.128;17.958;2023-04-03T15:32:48;1.40;;;0.60;;
79373;SDS011;68844;53.128;17.958;2023-04-03T15:35:15;1.00;;;0.50;;
79373;SDS011;68844;53.128;17.958;2023-04-03T15:37:42;1.30;;;0.40;;
79373;SDS011;68844;53.128;17.958;2023-04-03T15:40:09;2.00;;;0.50;;
79373;SDS011;68844;53.128;17.958;2023-04-03T15:42:37;1.40;;;0.50;;
79373;SDS011;68844;53.128;17.958;2023-04-03T15:45:04;1.30;;;0.40;;
79373;SDS011;68844;53.128;17.958;2023-04-03T15:47:32;0.50;;;0.20;;
79373;SDS011;68844;53.128;17.958;2023-04-03T15:49:59;1.30;;;0.60;;
79373;SDS011;68844;53.128;17.958;2023-04-03T15:52:26;2.30;;;0.60;;
79373;SDS011;68844;53.128;17.958;2023-04-03T15:54:53;2.70;;;0.60;;
79373;SDS011;68844;53.128;17.958;2023-04-03T15:57:20;1.30;;;0.40;;
79373;SDS011;68844;53.128;17.958;2023-04-03T15:59:52;1.30;;;0.50;;
79373;SDS011;68844;53.128;17.958;2023-04-03T16:02:19;0.70;;;0.30;;
79373;SDS011;68844;53.128;17.958;2023-04-03T16:04:48;1.20;;;0.20;;
79373;SDS011;68844;53.128;17.958;2023-04-03T16:07:15;1.00;;;0.40;;
79373;SDS011;68844;53.128;17.958;2023-04-03T16:09:42;0.50;;;0.30;;
79373;SDS011;68844;53.128;17.958;2023-04-03T16:12:09;1.40;;;0.40;;
79373;SDS011;68844;53.128;17.958;2023-04-03T16:14:36;1.20;;;0.60;;
79373;SDS011;68844;53.128;17.958;2023-04-03T16:17:03;1.10;;;0.50;;
79373;SDS011;68844;53.128;17.958;2023-04-03T16:19:30;1.60;;;0.50;;
79373;SDS011;68844;53.128;17.958;2023-04-03T16:21:57;2.20;;;0.80;;
79373;SDS011;68844;53.128;17.958;2023-04-03T16:24:24;2.00;;;0.90;;
79373;SDS011;68844;53.128;17.958;2023-04-03T16:26:51;1.30;;;0.40;;
79373;SDS011;68844;53.128;17.958;2023-04-03T16:29:19;0.80;;;0.30;;
79373;SDS011;68844;53.128;17.958;2023-04-03T16:31:46;1.50;;;0.60;;
79373;SDS011;68844;53.128;17.958;2023-04-03T16:34:13;1.40;;;0.70;;
79373;SDS011;68844;53.128;17.958;2023-04-03T16:36:42;0.80;;;0.50;;
79373;SDS011;68844;53.128;17.958;2023-04-03T16:39:09;0.50;;;0.20;;
79373;SDS011;68844;53.128;17.958;2023-04-03T16:41:36;0.90;;;0.30;;
79373;SDS011;68844;53.128;17.958;2023-04-03T16:44:03;1.20;;;0.40;;
79373;SDS011;68844;53.128;17.958;2023-04-03T16:46:30;1.60;;;0.60;;
79373;SDS011;68844;53.128;17.958;2023-04-03T16:48:57;0.80;;;0.40;;
79373;SDS011;68844;53.128;17.958;2023-04-03T16:51:24;1.00;;;0.60;;
79373;SDS011;68844;53.128;17.958;2023-04-03T16:53:53;1.50;;;0.50;;
79373;SDS011;68844;53.128;17.958;2023-04-03T16:56:20;0.60;;;0.20;;